Time;durP1;ratioP1;P1;durP2;ratioP2;P2;SDS_P1;SDS_P2;PMS_P1;PMS_P2;Temp;Humidity;BMP_temperature;BMP_pressure;BME280_temperature;BME280_humidity;BME280_pressure;Samples;Min_cycle;Max_cycle;Signal;HPM_P1;HPM_P2
2022/05/09 00:01:04;;;;;;;10.82;3.60;;;12.50;99.90;;;;;;5033783;28;20696;-71
2022/05/09 00:03:31;;;;;;;9.82;4.03;;;12.50;99.90;;;;;;5033456;28;20182;-70
2022/05/09 00:05:57;;;;;;;9.15;3.53;;;12.50;99.90;;;;;;5033125;28;20174;-70
2022/05/09 00:08:22;;;;;;;8.30;2.90;;;12.60;99.90;;;;;;5033529;28;20261;-71
2022/05/09 00:10:48;;;;;;;11.00;3.58;;;12.50;99.90;;;;;;5034142;28;20661;-70
2022/05/09 00:13:14;;;;;;;10.00;3.60;;;12.50;99.90;;;;;;5050707;28;20171;-69
2022/05/09 00:15:40;;;;;;;14.77;3.50;;;12.50;99.90;;;;;;5034773;28;20243;-74
2022/05/09 00:18:06;;;;;;;11.77;3.92;;;12.40;99.90;;;;;;5023515;28;20625;-75
2022/05/09 00:20:31;;;;;;;12.20;3.72;;;12.40;99.90;;;;;;5013609;28;20186;-75
2022/05/09 00:22:57;;;;;;;9.63;3.40;;;12.40;99.90;;;;;;5012164;28;20183;-73
2022/05/09 00:25:26;;;;;;;13.68;3.88;;;12.30;99.90;;;;;;5013162;28;20174;-73
2022/05/09 00:27:52;;;;;;;14.87;3.70;;;12.30;99.90;;;;;;5019231;28;20265;-73
2022/05/09 00:30:18;;;;;;;13.88;3.85;;;12.20;99.90;;;;;;5031501;28;20197;-73
2022/05/09 00:32:44;;;;;;;11.88;3.85;;;12.20;99.90;;;;;;5032718;28;20640;-73
2022/05/09 00:35:11;;;;;;;11.63;3.63;;;12.20;99.90;;;;;;5033376;28;20270;-71
2022/05/09 00:37:38;;;;;;;17.67;4.07;;;12.10;99.90;;;;;;5028437;28;20265;-72
2022/05/09 00:40:08;;;;;;;11.68;3.85;;;12.10;99.90;;;;;;5032116;28;20767;-72
2022/05/09 00:42:34;;;;;;;7.18;3.08;;;12.00;99.90;;;;;;5032868;28;20174;-72
2022/05/09 00:45:01;;;;;;;13.90;3.70;;;12.00;99.90;;;;;;5032094;28;20185;-72
2022/05/09 00:47:27;;;;;;;9.02;3.45;;;12.00;99.90;;;;;;5031224;28;20166;-72
2022/05/09 00:49:58;;;;;;;12.33;3.80;;;12.00;99.90;;;;;;5031774;28;20269;-71
2022/05/09 00:52:44;;;;;;;14.32;3.65;;;11.90;99.90;;;;;;5030595;28;20170;-71
2022/05/09 00:55:14;;;;;;;14.27;3.40;;;11.90;99.90;;;;;;5032896;28;20189;-73
2022/05/09 00:57:52;;;;;;;10.13;3.50;;;11.80;99.90;;;;;;5026261;28;20206;-73
2022/05/09 01:00:21;;;;;;;13.48;3.92;;;11.90;99.90;;;;;;5030360;28;20184;-72
2022/05/09 01:02:52;;;;;;;10.95;3.78;;;11.80;99.90;;;;;;5031674;28;20200;-72
2022/05/09 01:05:17;;;;;;;14.43;4.05;;;11.90;99.90;;;;;;5032231;28;20162;-72
2022/05/09 01:07:43;;;;;;;11.90;3.47;;;11.80;99.90;;;;;;5031057;28;20602;-72
2022/05/09 01:10:10;;;;;;;12.17;4.13;;;11.80;99.90;;;;;;5032433;28;20166;-60
2022/05/09 01:12:39;;;;;;;11.97;4.10;;;11.80;99.90;;;;;;5031738;28;20269;-71
2022/05/09 01:15:12;;;;;;;12.30;4.00;;;11.80;99.90;;;;;;5031786;28;20177;-67
2022/05/09 01:17:39;;;;;;;14.23;4.10;;;11.80;99.90;;;;;;5028466;28;20214;-68
2022/05/09 01:20:08;;;;;;;14.80;4.65;;;11.80;99.90;;;;;;5012196;28;20232;-69
2022/05/09 01:22:35;;;;;;;13.27;4.17;;;11.80;99.90;;;;;;5012545;28;20206;-69
2022/05/09 01:25:06;;;;;;;19.60;4.40;;;11.90;99.90;;;;;;5011378;28;20321;-69
2022/05/09 01:27:33;;;;;;;15.35;4.20;;;11.80;99.90;;;;;;5013477;28;20167;-69
2022/05/09 01:30:12;;;;;;;15.48;4.72;;;11.80;99.90;;;;;;5030134;28;20173;-69
2022/05/09 01:32:56;;;;;;;13.25;3.83;;;11.80;99.90;;;;;;5031325;28;20663;-68
2022/05/09 01:35:24;;;;;;;15.87;4.00;;;11.80;99.90;;;;;;5031503;28;20181;-69
2022/05/09 01:38:14;;;;;;;10.73;3.85;;;11.80;99.90;;;;;;5028803;28;20269;-70
2022/05/09 01:40:40;;;;;;;18.33;4.03;;;11.80;99.90;;;;;;5031708;28;20177;-70
2022/05/09 01:43:06;;;;;;;14.67;3.60;;;11.80;99.90;;;;;;5031681;28;20558;-70
2022/05/09 01:45:32;;;;;;;11.63;3.90;;;11.90;99.90;;;;;;5026067;28;20218;-71
2022/05/09 01:50:42;;;;;;;18.77;4.07;;;11.80;99.90;;;;;;5011712;28;20541;-71
2022/05/09 01:53:08;;;;;;;16.37;4.00;;;11.80;99.90;;;;;;5030833;28;20643;-71
2022/05/09 01:55:34;;;;;;;13.27;3.57;;;11.70;99.90;;;;;;5029862;28;20192;-71
2022/05/09 01:58:00;;;;;;;12.07;3.50;;;11.70;99.90;;;;;;5031122;28;20743;-71
2022/05/09 02:00:26;;;;;;;18.90;3.90;;;11.70;99.90;;;;;;5031663;28;20162;-70
2022/05/09 02:02:52;;;;;;;18.47;3.67;;;11.60;99.90;;;;;;5031452;28;20173;-70
2022/05/09 02:05:18;;;;;;;13.13;3.07;;;11.60;99.90;;;;;;5046674;28;20197;-72
2022/05/09 02:07:45;;;;;;;10.80;3.27;;;11.60;99.90;;;;;;5031560;28;20557;-70
2022/05/09 02:10:11;;;;;;;15.10;3.83;;;11.50;99.90;;;;;;5031603;28;20189;-71
2022/05/09 02:12:37;;;;;;;13.47;3.33;;;11.50;99.90;;;;;;5022309;28;20179;-72
2022/05/09 02:15:04;;;;;;;15.33;3.23;;;11.50;99.90;;;;;;5011967;28;20637;-72
2022/05/09 02:17:30;;;;;;;17.27;3.23;;;11.50;99.90;;;;;;5011712;28;20229;-72
2022/05/09 02:19:58;;;;;;;19.03;3.20;;;11.50;99.90;;;;;;5011259;28;20182;-73
2022/05/09 02:22:24;;;;;;;13.83;3.57;;;11.40;99.90;;;;;;5019193;28;20181;-73
2022/05/09 02:24:52;;;;;;;10.73;3.60;;;11.40;99.90;;;;;;5031513;28;20185;-70
2022/05/09 02:27:17;;;;;;;20.57;4.30;;;11.40;99.90;;;;;;5031103;28;20178;-71
2022/05/09 02:29:43;;;;;;;21.90;4.80;;;11.30;99.90;;;;;;5030388;28;20657;-72
2022/05/09 02:32:11;;;;;;;18.57;4.57;;;11.20;99.90;;;;;;5029513;28;20189;-73
2022/05/09 02:34:38;;;;;;;13.27;3.40;;;11.10;99.90;;;;;;5030502;28;20178;-73
2022/05/09 02:37:04;;;;;;;18.67;3.53;;;11.00;99.90;;;;;;5029510;28;20297;-72
2022/05/09 02:39:30;;;;;;;10.73;3.23;;;11.00;99.90;;;;;;5019129;28;20174;-72
2022/05/09 02:41:57;;;;;;;12.63;3.00;;;11.00;99.90;;;;;;5010289;28;20245;-71
2022/05/09 02:44:22;;;;;;;18.13;3.67;;;10.90;99.90;;;;;;5012533;28;20237;-71
2022/05/09 02:46:48;;;;;;;12.37;3.57;;;10.90;99.90;;;;;;5029616;28;20917;-72
2022/05/09 02:49:14;;;;;;;19.40;3.53;;;10.80;99.90;;;;;;5029325;28;20220;-73
2022/05/09 02:51:39;;;;;;;12.73;3.40;;;10.70;99.90;;;;;;5029934;28;20189;-71
2022/05/09 02:54:05;;;;;;;10.30;3.17;;;10.70;99.90;;;;;;5030073;28;20178;-73
2022/05/09 02:56:31;;;;;;;15.07;3.63;;;10.70;99.90;;;;;;5030954;28;20176;-72
2022/05/09 02:58:57;;;;;;;11.37;3.50;;;10.70;99.90;;;;;;5030662;28;20216;-73
2022/05/09 03:01:23;;;;;;;14.77;3.47;;;10.60;99.90;;;;;;5030462;28;20185;-72
2022/05/09 03:06:33;;;;;;;11.33;3.27;;;10.60;99.90;;;;;;5030791;28;20180;-70
2022/05/09 03:08:59;;;;;;;16.83;3.47;;;10.50;99.90;;;;;;5010306;28;20265;-73
2022/05/09 03:11:24;;;;;;;12.33;3.23;;;10.50;99.90;;;;;;5011398;28;20258;-72
2022/05/09 03:13:50;;;;;;;10.87;3.27;;;10.50;99.90;;;;;;5011374;28;20170;-73
2022/05/09 03:16:17;;;;;;;16.73;3.73;;;10.40;99.90;;;;;;5010754;28;20770;-72
2022/05/09 03:18:42;;;;;;;16.10;3.73;;;10.40;99.90;;;;;;5027393;28;20560;-73
2022/05/09 03:21:08;;;;;;;13.27;3.53;;;10.40;99.90;;;;;;5029579;28;20174;-72
2022/05/09 03:23:34;;;;;;;18.40;3.93;;;10.40;99.90;;;;;;5044214;28;20170;-73
2022/05/09 03:26:00;;;;;;;18.20;3.93;;;10.40;99.90;;;;;;5029023;28;20716;-74
2022/05/09 03:28:26;;;;;;;15.13;3.30;;;10.30;99.90;;;;;;5028652;28;20182;-74
2022/05/09 03:30:54;;;;;;;12.30;3.47;;;10.30;99.90;;;;;;5029789;28;20197;-72
2022/05/09 03:33:26;;;;;;;11.60;3.60;;;10.30;99.90;;;;;;5029638;28;20216;-73
2022/05/09 03:35:53;;;;;;;13.97;3.17;;;10.30;99.90;;;;;;5029322;28;20680;-61
2022/05/09 03:38:19;;;;;;;18.13;3.80;;;10.30;99.90;;;;;;5021003;28;20305;-74
2022/05/09 03:40:45;;;;;;;21.60;4.07;;;10.30;99.90;;;;;;5029571;28;20171;-73
2022/05/09 03:43:12;;;;;;;8.23;3.17;;;10.30;99.90;;;;;;5028435;28;20217;-74
2022/05/09 03:45:40;;;;;;;9.10;3.30;;;10.30;99.90;;;;;;5027782;28;20182;-73
2022/05/09 03:48:07;;;;;;;15.07;3.53;;;10.30;99.90;;;;;;5028179;28;20331;-71
2022/05/09 03:50:32;;;;;;;15.37;3.83;;;10.30;99.90;;;;;;5029468;28;20261;-70
2022/05/09 03:52:58;;;;;;;12.10;3.73;;;10.40;99.90;;;;;;5032141;28;20331;-70
2022/05/09 03:55:24;;;;;;;17.47;3.93;;;10.30;99.90;;;;;;5033270;28;20624;-71
2022/05/09 03:57:59;;;;;;;13.77;3.63;;;10.30;99.90;;;;;;5033784;28;20300;-72
2022/05/09 04:00:28;;;;;;;17.90;4.00;;;10.30;99.90;;;;;;5033707;28;20177;-71
2022/05/09 04:02:54;;;;;;;20.57;4.00;;;10.30;99.90;;;;;;5033449;28;20170;-71
2022/05/09 04:05:20;;;;;;;20.33;4.20;;;10.40;99.90;;;;;;5017089;28;20633;-71
2022/05/09 04:07:48;;;;;;;13.07;3.80;;;10.40;99.90;;;;;;5012121;28;20182;-71
2022/05/09 04:10:16;;;;;;;15.30;3.83;;;10.40;99.90;;;;;;5013888;28;20163;-71
2022/05/09 04:12:42;;;;;;;18.57;4.30;;;10.40;99.90;;;;;;5022219;28;20256;-71
2022/05/09 04:17:54;;;;;;;16.00;4.20;;;10.50;99.90;;;;;;5033487;28;20228;-71
2022/05/09 04:20:21;;;;;;;18.77;4.07;;;10.50;99.90;;;;;;5030950;28;20170;-71
2022/05/09 04:22:47;;;;;;;16.77;4.43;;;10.50;99.90;;;;;;5023956;28;20217;-71
2022/05/09 04:25:15;;;;;;;14.23;3.70;;;10.50;99.90;;;;;;5012962;28;20199;-73
2022/05/09 04:27:41;;;;;;;16.03;3.97;;;10.50;99.90;;;;;;5018444;28;20702;-71
2022/05/09 04:30:09;;;;;;;19.47;4.27;;;10.50;99.90;;;;;;5032422;28;20632;-72
2022/05/09 04:32:35;;;;;;;14.20;3.87;;;10.50;99.90;;;;;;5031688;28;20177;-71
2022/05/09 04:35:01;;;;;;;19.17;4.50;;;10.40;99.90;;;;;;5032978;28;20261;-71
2022/05/09 04:37:27;;;;;;;13.73;4.00;;;10.40;99.90;;;;;;5033085;28;20229;-72
2022/05/09 04:39:54;;;;;;;17.07;4.10;;;10.40;99.90;;;;;;5032859;28;20208;-72
2022/05/09 04:42:20;;;;;;;12.73;4.20;;;10.40;99.90;;;;;;5027022;28;20688;-72
2022/05/09 04:44:46;;;;;;;18.60;4.43;;;10.40;99.90;;;;;;5024897;28;20205;-72
2022/05/09 04:47:13;;;;;;;13.83;3.67;;;10.40;99.90;;;;;;5033496;28;20177;-73
2022/05/09 04:49:39;;;;;;;16.30;3.97;;;10.40;99.90;;;;;;5033137;28;20180;-73
2022/05/09 04:52:05;;;;;;;13.03;4.27;;;10.50;99.90;;;;;;5032180;28;20177;-72
2022/05/09 04:54:31;;;;;;;10.27;4.03;;;10.50;99.90;;;;;;5032404;28;20589;-72
2022/05/09 04:56:57;;;;;;;11.67;3.90;;;10.50;99.90;;;;;;5032467;28;20292;-70
2022/05/09 04:59:23;;;;;;;20.13;4.27;;;10.50;99.90;;;;;;5032894;28;20169;-72
2022/05/09 05:01:49;;;;;;;14.07;4.00;;;10.50;99.90;;;;;;5033121;28;20158;-69
2022/05/09 05:04:17;;;;;;;19.63;4.30;;;10.50;99.90;;;;;;5032093;28;20178;-73
2022/05/09 05:06:43;;;;;;;14.00;4.50;;;10.50;99.90;;;;;;5031027;28;20178;-74
2022/05/09 05:09:09;;;;;;;17.77;4.03;;;10.50;99.90;;;;;;5032849;28;20170;-73
2022/05/09 05:11:35;;;;;;;14.60;4.50;;;10.60;99.90;;;;;;5032423;28;20185;-73
2022/05/09 05:14:01;;;;;;;15.57;4.17;;;10.50;99.90;;;;;;5014001;28;20663;-72
2022/05/09 05:19:11;;;;;;;14.97;4.10;;;10.50;99.90;;;;;;5012209;28;20174;-72
2022/05/09 05:21:36;;;;;;;16.13;4.23;;;10.50;99.90;;;;;;5029541;28;20173;-76
2022/05/09 05:24:02;;;;;;;13.17;4.07;;;10.60;99.90;;;;;;5030978;28;20215;-73
2022/05/09 05:26:28;;;;;;;12.77;4.00;;;10.70;99.90;;;;;;5031896;28;20540;-73
2022/05/09 05:28:54;;;;;;;19.57;4.43;;;10.60;99.90;;;;;;5031681;28;20185;-72
2022/05/09 05:31:19;;;;;;;12.27;4.00;;;10.70;99.90;;;;;;5017442;28;20184;-72
2022/05/09 05:33:46;;;;;;;17.40;4.00;;;10.60;99.90;;;;;;5032372;28;20664;-72
2022/05/09 05:36:13;;;;;;;16.27;3.93;;;10.70;99.90;;;;;;5033361;28;20534;-72
2022/05/09 05:38:39;;;;;;;13.33;4.50;;;10.80;99.90;;;;;;5035360;28;20726;-72
2022/05/09 05:41:05;;;;;;;14.90;3.90;;;10.90;99.90;;;;;;5032215;28;20173;-72
2022/05/09 05:43:30;;;;;;;13.37;3.80;;;10.90;99.90;;;;;;5032443;28;20441;-70
2022/05/09 05:45:57;;;;;;;17.17;4.80;;;10.90;99.90;;;;;;5032411;28;20190;-70
2022/05/09 05:48:24;;;;;;;10.83;3.67;;;10.90;99.90;;;;;;5031975;28;20184;-72
2022/05/09 05:50:50;;;;;;;12.87;4.10;;;11.00;99.90;;;;;;5019874;28;20182;-71
2022/05/09 05:53:16;;;;;;;16.13;4.73;;;11.10;99.90;;;;;;5011291;28;20173;-72
2022/05/09 05:55:42;;;;;;;12.77;4.33;;;11.10;99.90;;;;;;5012043;28;20170;-72
2022/05/09 05:58:08;;;;;;;11.83;4.37;;;11.10;99.90;;;;;;5010704;28;20800;-71
2022/05/09 06:00:34;;;;;;;13.47;3.90;;;11.20;99.90;;;;;;5020447;28;20166;-72
2022/05/09 06:02:59;;;;;;;11.50;3.47;;;11.30;99.90;;;;;;5031799;28;20204;-72
2022/05/09 06:05:25;;;;;;;17.53;3.60;;;11.50;99.90;;;;;;5043253;28;20174;-73
2022/05/09 06:07:55;;;;;;;13.87;3.83;;;11.30;99.90;;;;;;5030603;28;20185;-64
2022/05/09 06:10:22;;;;;;;13.70;3.40;;;11.30;99.90;;;;;;5022629;28;20242;-64
2022/05/09 06:12:48;;;;;;;13.27;3.00;;;11.40;99.90;;;;;;5025415;28;20177;-65
2022/05/09 06:15:25;;;;;;;9.03;3.33;;;11.30;99.90;;;;;;5030255;28;20185;-65
2022/05/09 06:17:51;;;;;;;10.17;3.10;;;11.50;99.90;;;;;;5021122;28;20300;-66
2022/05/09 06:20:18;;;;;;;10.27;3.57;;;11.60;99.90;;;;;;5010436;28;20637;-65
2022/05/09 06:22:43;;;;;;;19.30;3.37;;;11.60;99.90;;;;;;5010408;28;20174;-64
2022/05/09 06:25:12;;;;;;;15.53;3.53;;;11.80;99.90;;;;;;5011321;28;20182;-66
2022/05/09 06:27:38;;;;;;;12.23;3.53;;;11.90;99.90;;;;;;5011601;28;20178;-65
2022/05/09 06:30:06;;;;;;;9.83;3.03;;;12.00;99.90;;;;;;5011071;28;20166;-66
2022/05/09 06:32:33;;;;;;;7.67;2.60;;;12.00;99.90;;;;;;5010186;28;20268;-66
2022/05/09 06:35:01;;;;;;;10.00;2.63;;;11.90;99.90;;;;;;5010926;28;20175;-65
2022/05/09 06:37:29;;;;;;;9.93;2.67;;;11.90;99.90;;;;;;5024850;28;20202;-64
2022/05/09 06:39:55;;;;;;;7.13;2.60;;;12.00;99.90;;;;;;5020469;28;20178;-61
2022/05/09 06:42:21;;;;;;;8.10;2.70;;;12.10;99.90;;;;;;5022755;28;20615;-61
2022/05/09 06:44:46;;;;;;;11.90;3.33;;;12.20;99.90;;;;;;5009791;28;20277;-61
2022/05/09 06:47:12;;;;;;;11.93;2.80;;;12.20;99.90;;;;;;5016736;28;20264;-61
2022/05/09 06:49:39;;;;;;;10.33;3.10;;;12.30;99.90;;;;;;5030035;28;20166;-61
2022/05/09 06:52:05;;;;;;;9.37;2.80;;;12.30;99.90;;;;;;5029809;28;20277;-61
2022/05/09 06:54:31;;;;;;;15.63;2.83;;;12.50;99.90;;;;;;5029240;28;20174;-61
2022/05/09 06:56:56;;;;;;;11.57;2.93;;;12.50;99.90;;;;;;5029385;28;20209;-62
2022/05/09 06:59:22;;;;;;;15.18;2.67;;;12.70;99.90;;;;;;5030163;28;20201;-61
2022/05/09 07:01:50;;;;;;;5.90;2.40;;;12.80;99.90;;;;;;5029086;28;20846;-62
2022/05/09 07:04:17;;;;;;;11.60;3.27;;;12.70;99.90;;;;;;5030442;28;20646;-61
2022/05/09 07:06:43;;;;;;;10.30;2.60;;;12.80;99.90;;;;;;5028711;28;20216;-62
2022/05/09 07:09:10;;;;;;;6.35;2.40;;;13.00;99.90;;;;;;5030183;28;20173;-55
2022/05/09 07:11:39;;;;;;;13.80;2.80;;;13.10;99.90;;;;;;5029465;28;20177;-55
2022/05/09 07:14:06;;;;;;;10.10;2.75;;;13.10;99.90;;;;;;5030193;28;20188;-57
2022/05/09 07:16:31;;;;;;;12.00;2.80;;;13.10;99.90;;;;;;5037797;28;20680;-55
2022/05/09 07:18:58;;;;;;;7.70;2.45;;;13.30;99.90;;;;;;5027149;28;20266;-56
2022/05/09 07:21:25;;;;;;;10.30;2.83;;;13.50;99.90;;;;;;5021908;28;20177;-56
2022/05/09 07:23:51;;;;;;;9.38;2.63;;;13.90;99.90;;;;;;5048587;28;20185;-56
2022/05/09 07:26:17;;;;;;;11.55;3.03;;;14.00;99.90;;;;;;5050154;28;20177;-57
2022/05/09 07:28:43;;;;;;;10.05;2.95;;;13.90;99.90;;;;;;5044851;28;20185;-56
2022/05/09 07:31:10;;;;;;;8.98;2.88;;;13.70;99.90;;;;;;5034768;28;20598;-57
2022/05/09 07:33:36;;;;;;;12.65;3.08;;;13.80;99.90;;;;;;5035587;28;20216;-65
2022/05/09 07:36:03;;;;;;;10.55;2.42;;;13.90;99.90;;;;;;5033039;28;20644;-69
2022/05/09 07:38:28;;;;;;;9.75;2.58;;;14.10;99.90;;;;;;5025841;28;20202;-66
2022/05/09 07:40:54;;;;;;;10.82;3.03;;;14.20;99.90;;;;;;5014293;28;20513;-60
2022/05/09 07:43:23;;;;;;;8.70;2.47;;;14.30;99.90;;;;;;5014082;28;20299;-60
2022/05/09 07:45:51;;;;;;;9.95;2.67;;;14.10;99.90;;;;;;5012963;28;20558;-61
2022/05/09 07:48:19;;;;;;;7.35;2.80;;;14.10;99.90;;;;;;5025840;28;20174;-58
2022/05/09 07:50:45;;;;;;;10.38;3.05;;;14.40;99.90;;;;;;5032345;28;20173;-58
2022/05/09 07:53:15;;;;;;;13.52;3.60;;;14.40;99.90;;;;;;5030777;28;20255;-58
2022/05/09 07:55:42;;;;;;;11.73;2.72;;;14.30;99.90;;;;;;5033197;28;20201;-58
2022/05/09 07:58:09;;;;;;;16.63;2.97;;;14.30;99.90;;;;;;5031505;28;20263;-58
2022/05/09 08:00:36;;;;;;;14.85;3.03;;;14.60;99.90;;;;;;5014233;28;20173;-58
2022/05/09 08:03:03;;;;;;;18.40;3.67;;;15.00;99.90;;;;;;5029437;28;20177;-58
2022/05/09 08:05:28;;;;;;;10.63;2.55;;;15.20;99.90;;;;;;5038928;28;20178;-58
2022/05/09 08:07:54;;;;;;;11.20;3.20;;;15.20;99.90;;;;;;5036165;28;20544;-58
2022/05/09 08:10:21;;;;;;;15.32;3.10;;;15.10;99.90;;;;;;5037673;28;20181;-58
2022/05/09 08:12:48;;;;;;;14.32;3.42;;;15.00;99.90;;;;;;5031784;28;20178;-58
2022/05/09 08:15:16;;;;;;;17.40;3.35;;;15.40;99.90;;;;;;5028308;28;20180;-58
2022/05/09 08:17:44;;;;;;;12.07;3.00;;;15.30;99.90;;;;;;5031257;28;20274;-58
2022/05/09 08:20:12;;;;;;;11.38;3.10;;;15.80;99.90;;;;;;5028282;28;20188;-58
2022/05/09 08:22:37;;;;;;;11.68;3.67;;;15.60;99.90;;;;;;5040299;28;20174;-57
2022/05/09 08:25:05;;;;;;;16.50;3.78;;;15.30;99.90;;;;;;5030993;28;20177;-60
2022/05/09 08:27:31;;;;;;;17.58;4.30;;;15.60;99.90;;;;;;5031999;28;20197;-59
2022/05/09 08:29:58;;;;;;;14.65;4.03;;;16.00;99.90;;;;;;5033401;28;20641;-59
2022/05/09 08:32:25;;;;;;;20.77;4.90;;;16.40;99.90;;;;;;5033095;28;20545;-56
2022/05/09 08:34:51;;;;;;;19.58;6.13;;;16.80;99.90;;;;;;5033179;28;20173;-59
2022/05/09 08:37:21;;;;;;;14.88;5.40;;;16.50;99.90;;;;;;5032678;28;20201;-57
2022/05/09 08:39:47;;;;;;;19.05;5.75;;;17.00;99.90;;;;;;5031764;28;20176;-57
2022/05/09 08:42:20;;;;;;;15.68;5.93;;;17.40;99.90;;;;;;5032313;28;20174;-57
2022/05/09 08:44:52;;;;;;;19.33;5.78;;;17.20;99.90;;;;;;5032079;28;20243;-57
2022/05/09 08:47:27;;;;;;;13.30;6.03;;;17.80;99.90;;;;;;5031086;28;20287;-57
2022/05/09 08:50:05;;;;;;;18.02;6.18;;;17.70;99.90;;;;;;5031230;28;20177;-57
2022/05/09 08:52:35;;;;;;;16.00;6.05;;;18.30;99.90;;;;;;5032020;28;20540;-57
2022/05/09 08:55:03;;;;;;;18.95;6.38;;;18.90;99.90;;;;;;5032238;28;20170;-57
2022/05/09 08:57:38;;;;;;;20.17;7.93;;;19.40;99.90;;;;;;5032297;28;20209;-58
2022/05/09 09:00:09;;;;;;;14.88;6.30;;;19.20;99.90;;;;;;5032615;28;20178;-57
2022/05/09 09:02:48;;;;;;;17.42;7.53;;;18.90;99.90;;;;;;5032913;28;20174;-57
2022/05/09 09:05:21;;;;;;;18.65;7.45;;;18.40;99.90;;;;;;5033160;28;20213;-57
2022/05/09 09:07:55;;;;;;;20.27;7.30;;;18.00;99.90;;;;;;5032590;28;20180;-57
2022/05/09 09:10:44;;;;;;;19.30;7.35;;;18.50;99.90;;;;;;5032263;28;20212;-58
2022/05/09 09:13:35;;;;;;;25.23;8.00;;;18.80;99.90;;;;;;5032379;28;20170;-57
2022/05/09 09:16:25;;;;;;;20.85;7.70;;;18.70;99.90;;;;;;5032318;28;20178;-57
2022/05/09 09:18:56;;;;;;;26.20;7.93;;;18.70;99.90;;;;;;5032292;28;20262;-57
2022/05/09 09:21:45;;;;;;;18.77;8.20;;;18.70;99.90;;;;;;5032206;28;20253;-57
2022/05/09 09:24:15;;;;;;;16.73;7.82;;;18.80;99.90;;;;;;5031956;28;20166;-58
2022/05/09 09:26:50;;;;;;;22.27;8.10;;;19.10;99.90;;;;;;5032448;28;20538;-58
2022/05/09 09:29:25;;;;;;;20.50;7.93;;;19.30;99.90;;;;;;5032367;28;20208;-58
2022/05/09 09:32:18;;;;;;;17.35;7.82;;;19.30;99.90;;;;;;5032142;28;20165;-58
2022/05/09 09:34:46;;;;;;;20.85;8.55;;;19.10;99.90;;;;;;5032021;28;20265;-58
2022/05/09 09:37:26;;;;;;;24.63;8.15;;;19.10;99.90;;;;;;5031901;28;20206;-58
2022/05/09 09:39:51;;;;;;;17.73;8.18;;;19.20;99.90;;;;;;5031956;28;20205;-58
2022/05/09 09:42:17;;;;;;;23.15;9.52;;;19.40;99.90;;;;;;5047077;28;20225;-58
2022/05/09 09:44:46;;;;;;;20.33;9.13;;;19.20;99.90;;;;;;5031558;28;20224;-57
2022/05/09 09:47:29;;;;;;;17.35;7.85;;;19.60;99.90;;;;;;5031614;28;20185;-57
2022/05/09 09:50:13;;;;;;;19.67;8.10;;;18.70;99.90;;;;;;5030545;28;20185;-57
2022/05/09 09:52:43;;;;;;;20.48;7.43;;;19.10;99.90;;;;;;5031692;28;20240;-57
2022/05/09 09:55:34;;;;;;;17.75;7.93;;;18.80;99.90;;;;;;5031708;28;20243;-57
2022/05/09 09:58:24;;;;;;;23.10;8.57;;;18.90;99.90;;;;;;5031387;28;20205;-57
2022/05/09 10:01:21;;;;;;;19.00;7.72;;;18.70;99.90;;;;;;5031666;28;20178;-57
2022/05/09 10:04:04;;;;;;;20.35;7.57;;;19.40;99.90;;;;;;5031143;28;20189;-57
2022/05/09 10:06:30;;;;;;;21.70;8.07;;;19.60;99.90;;;;;;5031471;28;20170;-57
2022/05/09 10:09:03;;;;;;;26.45;7.93;;;20.10;99.90;;;;;;5031443;28;20169;-57
2022/05/09 10:11:31;;;;;;;19.77;7.70;;;20.40;99.90;;;;;;5031338;28;20173;-57
2022/05/09 10:14:00;;;;;;;21.25;8.27;;;20.80;99.90;;;;;;5031301;28;20172;-57
2022/05/09 10:16:33;;;;;;;23.50;8.90;;;20.20;99.90;;;;;;5031164;28;20231;-57
2022/05/09 10:19:02;;;;;;;17.02;8.27;;;20.40;99.90;;;;;;5028860;28;20550;-57
2022/05/09 10:27:28;;;;;;;13.32;5.53;;;20.30;99.90;;;;;;5031197;28;20196;-58
2022/05/09 10:30:04;;;;;;;21.50;6.65;;;19.70;99.90;;;;;;5031128;28;20276;-56
2022/05/09 10:32:56;;;;;;;17.95;7.10;;;19.90;99.90;;;;;;5031040;28;20253;-56
2022/05/09 10:35:24;;;;;;;15.02;7.18;;;20.20;99.90;;;;;;5031311;28;20203;-57
2022/05/09 10:38:14;;;;;;;18.77;7.72;;;20.40;99.90;;;;;;5030782;28;20260;-57
2022/05/09 10:40:46;;;;;;;23.42;7.20;;;20.60;99.90;;;;;;5030923;28;20729;-56
2022/05/09 10:43:25;;;;;;;19.10;7.22;;;20.40;99.90;;;;;;5030660;28;20222;-57
2022/05/09 10:45:53;;;;;;;23.45;7.25;;;20.80;99.90;;;;;;5030740;28;20640;-57
2022/05/09 10:48:53;;;;;;;25.00;7.90;;;20.70;99.90;;;;;;5030632;28;20228;-57
2022/05/09 10:51:41;;;;;;;18.27;7.43;;;20.60;99.90;;;;;;5030497;28;20177;-57
2022/05/09 10:54:37;;;;;;;19.85;7.63;;;20.80;99.90;;;;;;5030637;28;20166;-57
2022/05/09 10:57:08;;;;;;;18.83;6.82;;;20.40;99.90;;;;;;5030647;28;20210;-57
2022/05/09 10:59:38;;;;;;;26.33;7.78;;;20.20;99.90;;;;;;5030776;28;20228;-58
2022/05/09 11:02:27;;;;;;;23.10;7.20;;;20.10;99.90;;;;;;5034849;28;20161;-59
2022/05/09 11:04:55;;;;;;;20.55;7.50;;;21.00;99.90;;;;;;5037158;28;20253;-58
2022/05/09 11:07:38;;;;;;;11.48;5.53;;;21.10;99.90;;;;;;5037026;28;20196;-58
2022/05/09 11:10:37;;;;;;;18.13;6.88;;;21.10;99.90;;;;;;5037157;28;20181;-59
2022/05/09 11:13:06;;;;;;;19.52;7.43;;;21.90;99.90;;;;;;5037160;28;20186;-58
2022/05/09 11:15:35;;;;;;;19.25;7.43;;;22.40;99.90;;;;;;5037480;28;20192;-57
2022/05/09 11:18:09;;;;;;;16.52;7.68;;;22.70;99.90;;;;;;5037223;28;20270;-57
2022/05/09 11:20:38;;;;;;;16.10;7.35;;;22.60;99.90;;;;;;5037247;28;20544;-59
2022/05/09 11:23:15;;;;;;;19.38;7.55;;;22.20;99.90;;;;;;5037201;28;20170;-57
2022/05/09 11:26:10;;;;;;;19.75;6.82;;;21.00;99.90;;;;;;5037070;28;20174;-58
2022/05/09 11:28:44;;;;;;;20.65;7.93;;;21.30;99.90;;;;;;5037049;28;20166;-58
2022/05/09 11:31:25;;;;;;;17.95;7.32;;;22.50;99.90;;;;;;5036884;28;20346;-58
2022/05/09 11:34:09;;;;;;;17.67;6.20;;;22.50;99.90;;;;;;5037041;28;20185;-58
2022/05/09 11:37:07;;;;;;;14.85;7.03;;;21.90;99.90;;;;;;5037003;28;20177;-58
2022/05/09 11:39:57;;;;;;;21.63;7.90;;;22.60;99.90;;;;;;5036695;28;20273;-58
2022/05/09 11:46:18;;;;;;;18.88;7.00;;;22.90;99.90;;;;;;5037186;28;20238;-58
2022/05/09 11:49:06;;;;;;;16.98;8.15;;;23.50;99.90;;;;;;5021570;28;20182;-58
2022/05/09 11:51:53;;;;;;;14.98;7.07;;;23.50;99.90;;;;;;5030299;28;20197;-58
2022/05/09 11:54:30;;;;;;;19.73;6.25;;;23.70;99.90;;;;;;5036829;28;20243;-57
2022/05/09 11:57:01;;;;;;;16.25;7.60;;;23.00;99.90;;;;;;5036806;28;20271;-57
2022/05/09 11:59:35;;;;;;;14.48;7.05;;;21.70;99.90;;;;;;5036860;28;20184;-58
2022/05/09 12:02:12;;;;;;;19.42;8.52;;;21.60;99.90;;;;;;5036900;28;20184;-58
2022/05/09 12:04:43;;;;;;;15.88;7.15;;;21.50;99.90;;;;;;5035531;28;20663;-58
2022/05/09 12:07:21;;;;;;;15.88;7.55;;;21.80;99.90;;;;;;5036767;28;20170;-58
2022/05/09 12:10:04;;;;;;;16.27;6.88;;;21.70;99.90;;;;;;5036981;28;20162;-57
2022/05/09 12:12:43;;;;;;;12.10;6.75;;;21.30;99.90;;;;;;5035379;28;20277;-57
2022/05/09 12:15:29;;;;;;;15.32;7.30;;;21.70;99.90;;;;;;5033409;28;20174;-57
2022/05/09 12:17:57;;;;;;;13.52;6.30;;;22.60;99.90;;;;;;5025754;28;20304;-57
2022/05/09 12:20:29;;;;;;;14.40;7.47;;;22.60;99.90;;;;;;5033285;28;20256;-57
2022/05/09 12:22:57;;;;;;;21.52;8.43;;;23.20;99.90;;;;;;5033574;28;20184;-57
2022/05/09 12:25:41;;;;;;;11.32;5.05;;;23.40;99.90;;;;;;5033171;28;20185;-57
2022/05/09 12:28:16;;;;;;;9.32;4.63;;;22.90;99.90;;;;;;5033281;28;20170;-57
2022/05/09 12:30:59;;;;;;;15.20;5.07;;;22.90;99.90;;;;;;5030698;28;20188;-57
2022/05/09 12:33:38;;;;;;;13.20;6.40;;;23.30;99.90;;;;;;5032784;28;20166;-57
2022/05/09 12:36:15;;;;;;;18.55;7.97;;;23.70;99.90;;;;;;5032914;28;20177;-57
2022/05/09 12:38:44;;;;;;;12.20;4.65;;;24.50;99.90;;;;;;5032901;28;20343;-57
2022/05/09 12:41:20;;;;;;;10.60;4.47;;;24.20;99.90;;;;;;5032742;28;20174;-57
2022/05/09 12:43:50;;;;;;;9.38;4.82;;;24.40;99.90;;;;;;5032706;28;20275;-57
2022/05/09 12:46:22;;;;;;;14.00;5.35;;;24.00;99.90;;;;;;5032700;28;20205;-57
2022/05/09 12:48:51;;;;;;;14.68;5.85;;;23.80;99.90;;;;;;5032601;28;20174;-57
2022/05/09 12:51:18;;;;;;;9.70;4.43;;;23.90;99.90;;;;;;5032812;28;20176;-57
2022/05/09 12:53:44;;;;;;;11.07;4.43;;;23.00;99.90;;;;;;5032601;28;20173;-57
2022/05/09 12:56:22;;;;;;;15.18;4.60;;;22.20;99.90;;;;;;5032765;28;20173;-57
2022/05/09 12:59:09;;;;;;;12.73;4.85;;;21.80;99.90;;;;;;5032656;28;20691;-57
2022/05/09 13:01:42;;;;;;;11.25;4.45;;;22.40;99.90;;;;;;5032581;28;20174;-57
2022/05/09 13:04:21;;;;;;;11.85;4.05;;;23.50;99.90;;;;;;5032586;28;20220;-57
2022/05/09 13:06:51;;;;;;;6.38;3.45;;;23.60;99.90;;;;;;5032578;28;20165;-57
2022/05/09 13:09:30;;;;;;;16.65;4.43;;;23.60;99.90;;;;;;5032544;28;20265;-57
2022/05/09 13:12:03;;;;;;;13.05;3.58;;;24.50;99.90;;;;;;5032389;28;20544;-58
2022/05/09 13:14:46;;;;;;;8.45;2.80;;;24.40;99.90;;;;;;5032427;28;20174;-57